sensor_id;sensor_type;location;lat;lon;timestamp;P1;durP1;ratioP1;P2;durP2;ratioP2
24715;SDS011;12822;50.124;8.678;2023-01-25T00:00:40;26.88;;;15.50;;
24715;SDS011;12822;50.124;8.678;2023-01-25T00:03:05;27.15;;;16.08;;
24715;SDS011;12822;50.124;8.678;2023-01-25T00:05:31;26.35;;;15.43;;
24715;SDS011;12822;50.124;8.678;2023-01-25T00:07:57;26.55;;;15.70;;
24715;SDS011;12822;50.124;8.678;2023-01-25T00:10:23;26.88;;;15.23;;
24715;SDS011;12822;50.124;8.678;2023-01-25T00:12:49;23.65;;;14.70;;
24715;SDS011;12822;50.124;8.678;2023-01-25T00:15:15;25.70;;;14.32;;
24715;SDS011;12822;50.124;8.678;2023-01-25T00:17:41;23.75;;;13.82;;
24715;SDS011;12822;50.124;8.678;2023-01-25T00:20:08;22.90;;;14.32;;
24715;SDS011;12822;50.124;8.678;2023-01-25T00:22:34;25.20;;;14.45;;
24715;SDS011;12822;50.124;8.678;2023-01-25T00:25:00;24.85;;;14.45;;
24715;SDS011;12822;50.124;8.678;2023-01-25T00:27:26;23.00;;;14.68;;
24715;SDS011;12822;50.124;8.678;2023-01-25T00:29:52;26.52;;;15.18;;
24715;SDS011;12822;50.124;8.678;2023-01-25T00:34:47;27.15;;;15.65;;
24715;SDS011;12822;50.124;8.678;2023-01-25T00:39:40;25.98;;;15.75;;
24715;SDS011;12822;50.124;8.678;2023-01-25T00:42:09;24.35;;;15.05;;
24715;SDS011;12822;50.124;8.678;2023-01-25T00:44:36;25.58;;;13.48;;
24715;SDS011;12822;50.124;8.678;2023-01-25T00:47:02;24.00;;;14.32;;
24715;SDS011;12822;50.124;8.678;2023-01-25T00:49:29;23.77;;;14.82;;
24715;SDS011;12822;50.124;8.678;2023-01-25T00:51:55;26.70;;;15.25;;
24715;SDS011;12822;50.124;8.678;2023-01-25T00:54:22;27.15;;;15.43;;
24715;SDS011;12822;50.124;8.678;2023-01-25T00:56:48;27.17;;;14.93;;
24715;SDS011;12822;50.124;8.678;2023-01-25T00:59:19;22.65;;;14.30;;
24715;SDS011;12822;50.124;8.678;2023-01-25T01:01:45;20.38;;;12.85;;
24715;SDS011;12822;50.124;8.678;2023-01-25T01:04:10;24.67;;;14.55;;
24715;SDS011;12822;50.124;8.678;2023-01-25T01:06:37;26.17;;;14.90;;
24715;SDS011;12822;50.124;8.678;2023-01-25T01:09:04;24.05;;;15.25;;
24715;SDS011;12822;50.124;8.678;2023-01-25T01:11:30;25.73;;;15.50;;
24715;SDS011;12822;50.124;8.678;2023-01-25T01:13:56;27.10;;;15.90;;
24715;SDS011;12822;50.124;8.678;2023-01-25T01:16:22;28.63;;;14.15;;
24715;SDS011;12822;50.124;8.678;2023-01-25T01:18:48;23.65;;;14.73;;
24715;SDS011;12822;50.124;8.678;2023-01-25T01:21:15;21.67;;;13.13;;
24715;SDS011;12822;50.124;8.678;2023-01-25T01:23:41;26.20;;;14.73;;
24715;SDS011;12822;50.124;8.678;2023-01-25T01:26:08;20.92;;;12.70;;
24715;SDS011;12822;50.124;8.678;2023-01-25T01:28:34;22.23;;;13.10;;
24715;SDS011;12822;50.124;8.678;2023-01-25T01:31:04;19.60;;;12.27;;
24715;SDS011;12822;50.124;8.678;2023-01-25T01:33:30;22.92;;;13.23;;
24715;SDS011;12822;50.124;8.678;2023-01-25T01:35:56;20.98;;;12.57;;
24715;SDS011;12822;50.124;8.678;2023-01-25T01:38:22;23.35;;;13.90;;
24715;SDS011;12822;50.124;8.678;2023-01-25T01:40:48;22.23;;;14.00;;
24715;SDS011;12822;50.124;8.678;2023-01-25T01:43:15;22.52;;;13.75;;
24715;SDS011;12822;50.124;8.678;2023-01-25T01:50:40;20.35;;;13.35;;
24715;SDS011;12822;50.124;8.678;2023-01-25T01:53:06;20.00;;;12.80;;
24715;SDS011;12822;50.124;8.678;2023-01-25T01:55:32;20.02;;;12.02;;
24715;SDS011;12822;50.124;8.678;2023-01-25T01:57:58;21.85;;;12.65;;
24715;SDS011;12822;50.124;8.678;2023-01-25T02:00:30;23.15;;;13.23;;
24715;SDS011;12822;50.124;8.678;2023-01-25T02:02:57;21.10;;;13.70;;
24715;SDS011;12822;50.124;8.678;2023-01-25T02:07:52;21.38;;;13.48;;
24715;SDS011;12822;50.124;8.678;2023-01-25T02:10:19;22.80;;;12.70;;
24715;SDS011;12822;50.124;8.678;2023-01-25T02:12:46;19.48;;;12.80;;
24715;SDS011;12822;50.124;8.678;2023-01-25T02:15:13;20.88;;;13.00;;
24715;SDS011;12822;50.124;8.678;2023-01-25T02:17:39;18.90;;;12.38;;
24715;SDS011;12822;50.124;8.678;2023-01-25T02:20:09;18.77;;;12.25;;
24715;SDS011;12822;50.124;8.678;2023-01-25T02:22:40;20.02;;;12.80;;
24715;SDS011;12822;50.124;8.678;2023-01-25T02:25:10;19.67;;;12.60;;
24715;SDS011;12822;50.124;8.678;2023-01-25T02:27:39;17.85;;;11.57;;
24715;SDS011;12822;50.124;8.678;2023-01-25T02:30:07;22.27;;;12.48;;
24715;SDS011;12822;50.124;8.678;2023-01-25T02:32:33;18.80;;;11.73;;
24715;SDS011;12822;50.124;8.678;2023-01-25T02:34:59;19.70;;;12.18;;
24715;SDS011;12822;50.124;8.678;2023-01-25T02:37:25;17.45;;;11.65;;
24715;SDS011;12822;50.124;8.678;2023-01-25T02:39:51;19.60;;;11.93;;
24715;SDS011;12822;50.124;8.678;2023-01-25T02:42:17;19.17;;;12.10;;
24715;SDS011;12822;50.124;8.678;2023-01-25T02:44:43;19.20;;;12.57;;
24715;SDS011;12822;50.124;8.678;2023-01-25T02:47:09;19.70;;;11.88;;
24715;SDS011;12822;50.124;8.678;2023-01-25T02:49:35;20.65;;;12.88;;
24715;SDS011;12822;50.124;8.678;2023-01-25T02:52:01;19.92;;;12.95;;
24715;SDS011;12822;50.124;8.678;2023-01-25T02:54:28;18.65;;;11.27;;
24715;SDS011;12822;50.124;8.678;2023-01-25T02:56:54;19.92;;;12.10;;
24715;SDS011;12822;50.124;8.678;2023-01-25T02:59:20;20.58;;;12.15;;
24715;SDS011;12822;50.124;8.678;2023-01-25T03:01:46;18.42;;;12.48;;
24715;SDS011;12822;50.124;8.678;2023-01-25T03:04:12;17.15;;;11.95;;
24715;SDS011;12822;50.124;8.678;2023-01-25T03:06:38;20.83;;;12.20;;
24715;SDS011;12822;50.124;8.678;2023-01-25T03:09:05;21.58;;;13.50;;
24715;SDS011;12822;50.124;8.678;2023-01-25T03:11:32;20.67;;;13.23;;
24715;SDS011;12822;50.124;8.678;2023-01-25T03:13:58;18.08;;;11.73;;
24715;SDS011;12822;50.124;8.678;2023-01-25T03:16:24;21.00;;;12.27;;
24715;SDS011;12822;50.124;8.678;2023-01-25T03:18:53;22.17;;;12.68;;
24715;SDS011;12822;50.124;8.678;2023-01-25T03:21:20;20.23;;;12.93;;
24715;SDS011;12822;50.124;8.678;2023-01-25T03:23:46;22.00;;;12.90;;
24715;SDS011;12822;50.124;8.678;2023-01-25T03:28:39;19.33;;;12.60;;
24715;SDS011;12822;50.124;8.678;2023-01-25T03:31:06;21.58;;;13.73;;
24715;SDS011;12822;50.124;8.678;2023-01-25T03:33:32;22.35;;;13.25;;
24715;SDS011;12822;50.124;8.678;2023-01-25T03:35:58;20.40;;;11.85;;
24715;SDS011;12822;50.124;8.678;2023-01-25T03:38:24;20.90;;;13.32;;
24715;SDS011;12822;50.124;8.678;2023-01-25T03:40:51;21.08;;;12.63;;
24715;SDS011;12822;50.124;8.678;2023-01-25T03:43:17;20.40;;;12.93;;
24715;SDS011;12822;50.124;8.678;2023-01-25T03:45:43;19.55;;;12.63;;
24715;SDS011;12822;50.124;8.678;2023-01-25T03:48:09;20.50;;;11.77;;
24715;SDS011;12822;50.124;8.678;2023-01-25T03:50:35;23.40;;;14.00;;
24715;SDS011;12822;50.124;8.678;2023-01-25T03:53:01;22.45;;;14.25;;
24715;SDS011;12822;50.124;8.678;2023-01-25T03:55:31;22.58;;;13.80;;
24715;SDS011;12822;50.124;8.678;2023-01-25T03:57:57;23.20;;;14.10;;
24715;SDS011;12822;50.124;8.678;2023-01-25T04:00:23;23.92;;;14.50;;
24715;SDS011;12822;50.124;8.678;2023-01-25T04:02:49;20.92;;;14.05;;
24715;SDS011;12822;50.124;8.678;2023-01-25T04:05:15;22.10;;;13.30;;
24715;SDS011;12822;50.124;8.678;2023-01-25T04:07:42;20.27;;;12.57;;
24715;SDS011;12822;50.124;8.678;2023-01-25T04:10:08;22.00;;;14.00;;
24715;SDS011;12822;50.124;8.678;2023-01-25T04:12:34;21.38;;;14.05;;
24715;SDS011;12822;50.124;8.678;2023-01-25T04:15:00;21.05;;;13.38;;
24715;SDS011;12822;50.124;8.678;2023-01-25T04:17:26;21.30;;;13.95;;
24715;SDS011;12822;50.124;8.678;2023-01-25T04:19:52;23.63;;;14.30;;
24715;SDS011;12822;50.124;8.678;2023-01-25T04:22:18;22.67;;;13.45;;
24715;SDS011;12822;50.124;8.678;2023-01-25T04:24:44;22.38;;;13.38;;
24715;SDS011;12822;50.124;8.678;2023-01-25T04:27:10;20.23;;;12.45;;
24715;SDS011;12822;50.124;8.678;2023-01-25T04:29:36;21.05;;;13.23;;
24715;SDS011;12822;50.124;8.678;2023-01-25T04:32:02;21.60;;;12.98;;
24715;SDS011;12822;50.124;8.678;2023-01-25T04:34:28;18.55;;;12.52;;
24715;SDS011;12822;50.124;8.678;2023-01-25T04:36:54;20.55;;;12.15;;
24715;SDS011;12822;50.124;8.678;2023-01-25T04:39:19;19.35;;;12.50;;
24715;SDS011;12822;50.124;8.678;2023-01-25T04:41:45;20.42;;;13.07;;
24715;SDS011;12822;50.124;8.678;2023-01-25T04:44:11;22.02;;;12.15;;
24715;SDS011;12822;50.124;8.678;2023-01-25T04:46:37;17.67;;;11.00;;
24715;SDS011;12822;50.124;8.678;2023-01-25T04:49:03;19.45;;;10.90;;
24715;SDS011;12822;50.124;8.678;2023-01-25T04:51:29;18.48;;;10.77;;
24715;SDS011;12822;50.124;8.678;2023-01-25T04:53:55;17.00;;;11.35;;
24715;SDS011;12822;50.124;8.678;2023-01-25T04:56:21;17.42;;;10.70;;
24715;SDS011;12822;50.124;8.678;2023-01-25T04:58:47;17.02;;;11.73;;
24715;SDS011;12822;50.124;8.678;2023-01-25T05:01:13;18.88;;;12.13;;
24715;SDS011;12822;50.124;8.678;2023-01-25T05:03:39;22.17;;;12.65;;
24715;SDS011;12822;50.124;8.678;2023-01-25T05:06:05;17.15;;;11.30;;
24715;SDS011;12822;50.124;8.678;2023-01-25T05:08:31;18.42;;;10.88;;
24715;SDS011;12822;50.124;8.678;2023-01-25T05:10:57;18.52;;;11.70;;
24715;SDS011;12822;50.124;8.678;2023-01-25T05:13:23;17.95;;;11.77;;
24715;SDS011;12822;50.124;8.678;2023-01-25T05:15:49;20.48;;;12.65;;
24715;SDS011;12822;50.124;8.678;2023-01-25T05:18:15;20.30;;;11.95;;
24715;SDS011;12822;50.124;8.678;2023-01-25T05:20:41;20.60;;;12.38;;
24715;SDS011;12822;50.124;8.678;2023-01-25T05:23:07;20.50;;;12.70;;
24715;SDS011;12822;50.124;8.678;2023-01-25T05:25:33;20.17;;;12.00;;
24715;SDS011;12822;50.124;8.678;2023-01-25T05:28:18;21.63;;;12.00;;
24715;SDS011;12822;50.124;8.678;2023-01-25T05:30:44;19.55;;;12.07;;
24715;SDS011;12822;50.124;8.678;2023-01-25T05:33:10;21.40;;;12.77;;
24715;SDS011;12822;50.124;8.678;2023-01-25T05:35:36;21.63;;;12.73;;
24715;SDS011;12822;50.124;8.678;2023-01-25T05:38:02;20.73;;;13.02;;
24715;SDS011;12822;50.124;8.678;2023-01-25T05:40:28;21.77;;;13.38;;
24715;SDS011;12822;50.124;8.678;2023-01-25T05:42:54;24.65;;;14.10;;
24715;SDS011;12822;50.124;8.678;2023-01-25T05:45:21;23.02;;;13.80;;
24715;SDS011;12822;50.124;8.678;2023-01-25T05:47:50;20.88;;;13.88;;
24715;SDS011;12822;50.124;8.678;2023-01-25T05:50:16;20.83;;;12.90;;
24715;SDS011;12822;50.124;8.678;2023-01-25T05:52:44;19.58;;;12.23;;
24715;SDS011;12822;50.124;8.678;2023-01-25T05:55:10;20.70;;;12.98;;
24715;SDS011;12822;50.124;8.678;2023-01-25T05:57:36;18.98;;;11.93;;
24715;SDS011;12822;50.124;8.678;2023-01-25T06:00:02;22.73;;;14.30;;
24715;SDS011;12822;50.124;8.678;2023-01-25T06:02:29;24.75;;;14.10;;
24715;SDS011;12822;50.124;8.678;2023-01-25T06:04:55;25.52;;;15.02;;
24715;SDS011;12822;50.124;8.678;2023-01-25T06:07:21;24.23;;;14.98;;
24715;SDS011;12822;50.124;8.678;2023-01-25T06:09:47;22.20;;;13.75;;
24715;SDS011;12822;50.124;8.678;2023-01-25T06:12:13;24.83;;;14.82;;
24715;SDS011;12822;50.124;8.678;2023-01-25T06:14:40;23.02;;;13.35;;
24715;SDS011;12822;50.124;8.678;2023-01-25T06:17:06;20.27;;;13.93;;
24715;SDS011;12822;50.124;8.678;2023-01-25T06:19:32;23.55;;;14.45;;
24715;SDS011;12822;50.124;8.678;2023-01-25T06:21:58;24.73;;;13.90;;
24715;SDS011;12822;50.124;8.678;2023-01-25T06:24:24;21.25;;;12.52;;
24715;SDS011;12822;50.124;8.678;2023-01-25T06:26:50;19.02;;;12.60;;
24715;SDS011;12822;50.124;8.678;2023-01-25T06:29:16;23.42;;;13.98;;
24715;SDS011;12822;50.124;8.678;2023-01-25T06:31:42;24.73;;;14.50;;
24715;SDS011;12822;50.124;8.678;2023-01-25T06:34:08;22.13;;;13.43;;
24715;SDS011;12822;50.124;8.678;2023-01-25T06:36:34;20.65;;;13.75;;
24715;SDS011;12822;50.124;8.678;2023-01-25T06:39:00;23.20;;;14.05;;
24715;SDS011;12822;50.124;8.678;2023-01-25T06:41:26;24.88;;;13.98;;
24715;SDS011;12822;50.124;8.678;2023-01-25T06:43:53;21.05;;;13.20;;
24715;SDS011;12822;50.124;8.678;2023-01-25T06:46:20;23.20;;;14.48;;
24715;SDS011;12822;50.124;8.678;2023-01-25T06:48:46;22.85;;;13.90;;
24715;SDS011;12822;50.124;8.678;2023-01-25T06:51:13;23.58;;;15.05;;
24715;SDS011;12822;50.124;8.678;2023-01-25T06:53:40;24.60;;;13.68;;
24715;SDS011;12822;50.124;8.678;2023-01-25T06:56:10;21.55;;;12.20;;
24715;SDS011;12822;50.124;8.678;2023-01-25T06:58:37;21.20;;;13.23;;
24715;SDS011;12822;50.124;8.678;2023-01-25T07:01:04;22.55;;;13.88;;
24715;SDS011;12822;50.124;8.678;2023-01-25T07:03:31;22.98;;;13.88;;
24715;SDS011;12822;50.124;8.678;2023-01-25T07:05:58;25.10;;;14.30;;
24715;SDS011;12822;50.124;8.678;2023-01-25T07:08:24;20.90;;;12.85;;
24715;SDS011;12822;50.124;8.678;2023-01-25T07:10:57;23.45;;;14.55;;
24715;SDS011;12822;50.124;8.678;2023-01-25T07:13:23;23.20;;;13.93;;
24715;SDS011;12822;50.124;8.678;2023-01-25T07:16:00;22.05;;;14.10;;
24715;SDS011;12822;50.124;8.678;2023-01-25T07:18:27;20.38;;;13.23;;
24715;SDS011;12822;50.124;8.678;2023-01-25T07:20:54;22.75;;;14.05;;
24715;SDS011;12822;50.124;8.678;2023-01-25T07:23:20;21.67;;;13.73;;
24715;SDS011;12822;50.124;8.678;2023-01-25T07:25:46;23.23;;;13.73;;
24715;SDS011;12822;50.124;8.678;2023-01-25T07:28:13;20.02;;;13.02;;
24715;SDS011;12822;50.124;8.678;2023-01-25T07:30:39;22.90;;;14.35;;
24715;SDS011;12822;50.124;8.678;2023-01-25T07:33:06;23.77;;;13.63;;
24715;SDS011;12822;50.124;8.678;2023-01-25T07:35:32;25.38;;;15.57;;
24715;SDS011;12822;50.124;8.678;2023-01-25T07:37:58;23.75;;;14.85;;
24715;SDS011;12822;50.124;8.678;2023-01-25T07:40:24;27.08;;;15.85;;
24715;SDS011;12822;50.124;8.678;2023-01-25T07:42:50;27.98;;;15.43;;
24715;SDS011;12822;50.124;8.678;2023-01-25T07:45:16;27.38;;;17.05;;
24715;SDS011;12822;50.124;8.678;2023-01-25T07:47:42;27.17;;;16.20;;
24715;SDS011;12822;50.124;8.678;2023-01-25T07:50:09;28.48;;;17.52;;
24715;SDS011;12822;50.124;8.678;2023-01-25T07:52:35;27.17;;;17.23;;
24715;SDS011;12822;50.124;8.678;2023-01-25T07:55:02;28.80;;;16.75;;
24715;SDS011;12822;50.124;8.678;2023-01-25T07:57:28;28.17;;;16.83;;
24715;SDS011;12822;50.124;8.678;2023-01-25T07:59:53;26.20;;;15.95;;
24715;SDS011;12822;50.124;8.678;2023-01-25T08:02:20;25.52;;;15.88;;
24715;SDS011;12822;50.124;8.678;2023-01-25T08:04:45;25.30;;;15.60;;
24715;SDS011;12822;50.124;8.678;2023-01-25T08:07:12;24.92;;;15.13;;
24715;SDS011;12822;50.124;8.678;2023-01-25T08:09:38;27.45;;;15.45;;
24715;SDS011;12822;50.124;8.678;2023-01-25T08:12:05;22.85;;;14.27;;
24715;SDS011;12822;50.124;8.678;2023-01-25T08:14:31;26.88;;;14.68;;
24715;SDS011;12822;50.124;8.678;2023-01-25T08:16:57;25.98;;;14.95;;
24715;SDS011;12822;50.124;8.678;2023-01-25T08:19:23;25.85;;;15.20;;
24715;SDS011;12822;50.124;8.678;2023-01-25T08:21:50;27.73;;;14.88;;
24715;SDS011;12822;50.124;8.678;2023-01-25T08:24:16;23.58;;;13.80;;
24715;SDS011;12822;50.124;8.678;2023-01-25T08:26:42;24.45;;;14.63;;
24715;SDS011;12822;50.124;8.678;2023-01-25T08:29:11;23.70;;;14.40;;
24715;SDS011;12822;50.124;8.678;2023-01-25T08:31:38;26.92;;;14.98;;
24715;SDS011;12822;50.124;8.678;2023-01-25T08:34:05;24.75;;;14.25;;
24715;SDS011;12822;50.124;8.678;2023-01-25T08:36:31;23.52;;;14.05;;
24715;SDS011;12822;50.124;8.678;2023-01-25T08:38:58;27.50;;;15.07;;
24715;SDS011;12822;50.124;8.678;2023-01-25T08:41:25;29.40;;;16.30;;
24715;SDS011;12822;50.124;8.678;2023-01-25T08:43:52;28.70;;;15.13;;
24715;SDS011;12822;50.124;8.678;2023-01-25T08:46:19;27.38;;;15.45;;
24715;SDS011;12822;50.124;8.678;2023-01-25T08:48:45;27.42;;;15.80;;
24715;SDS011;12822;50.124;8.678;2023-01-25T08:51:12;26.77;;;15.18;;
24715;SDS011;12822;50.124;8.678;2023-01-25T08:53:39;29.45;;;15.75;;
24715;SDS011;12822;50.124;8.678;2023-01-25T08:56:06;26.88;;;15.05;;
24715;SDS011;12822;50.124;8.678;2023-01-25T08:58:32;24.38;;;15.20;;
24715;SDS011;12822;50.124;8.678;2023-01-25T09:01:02;26.25;;;15.07;;
24715;SDS011;12822;50.124;8.678;2023-01-25T09:03:28;24.33;;;15.45;;
24715;SDS011;12822;50.124;8.678;2023-01-25T09:05:54;24.55;;;13.85;;
24715;SDS011;12822;50.124;8.678;2023-01-25T09:13:32;25.83;;;14.75;;
24715;SDS011;12822;50.124;8.678;2023-01-25T09:15:59;25.42;;;14.00;;
24715;SDS011;12822;50.124;8.678;2023-01-25T09:18:25;25.55;;;13.93;;
24715;SDS011;12822;50.124;8.678;2023-01-25T09:20:51;25.38;;;14.45;;
24715;SDS011;12822;50.124;8.678;2023-01-25T09:23:17;25.88;;;14.50;;
24715;SDS011;12822;50.124;8.678;2023-01-25T09:25:46;24.20;;;14.60;;
24715;SDS011;12822;50.124;8.678;2023-01-25T09:28:12;30.50;;;15.95;;
24715;SDS011;12822;50.124;8.678;2023-01-25T09:30:38;24.10;;;15.23;;
24715;SDS011;12822;50.124;8.678;2023-01-25T09:33:06;27.13;;;16.05;;
24715;SDS011;12822;50.124;8.678;2023-01-25T09:35:32;27.25;;;15.77;;
24715;SDS011;12822;50.124;8.678;2023-01-25T09:37:59;26.48;;;14.90;;
24715;SDS011;12822;50.124;8.678;2023-01-25T09:40:26;21.67;;;13.57;;
24715;SDS011;12822;50.124;8.678;2023-01-25T09:42:59;23.20;;;13.80;;
24715;SDS011;12822;50.124;8.678;2023-01-25T09:45:33;25.05;;;14.60;;
24715;SDS011;12822;50.124;8.678;2023-01-25T09:55:39;30.98;;;17.33;;
24715;SDS011;12822;50.124;8.678;2023-01-25T09:58:09;28.77;;;15.98;;
24715;SDS011;12822;50.124;8.678;2023-01-25T10:03:09;25.05;;;13.75;;
24715;SDS011;12822;50.124;8.678;2023-01-25T10:05:41;25.23;;;14.93;;
24715;SDS011;12822;50.124;8.678;2023-01-25T10:13:31;31.50;;;17.20;;
24715;SDS011;12822;50.124;8.678;2023-01-25T10:21:03;28.73;;;17.58;;
24715;SDS011;12822;50.124;8.678;2023-01-25T10:25:58;25.02;;;15.25;;
24715;SDS011;12822;50.124;8.678;2023-01-25T10:28:38;29.73;;;17.25;;
24715;SDS011;12822;50.124;8.678;2023-01-25T10:31:07;31.33;;;16.90;;
24715;SDS011;12822;50.124;8.678;2023-01-25T10:33:36;32.13;;;17.37;;
24715;SDS011;12822;50.124;8.678;2023-01-25T10:36:04;27.38;;;15.48;;
24715;SDS011;12822;50.124;8.678;2023-01-25T10:38:40;28.25;;;16.08;;
24715;SDS011;12822;50.124;8.678;2023-01-25T10:43:41;28.63;;;15.52;;
24715;SDS011;12822;50.124;8.678;2023-01-25T10:46:23;32.30;;;15.95;;
24715;SDS011;12822;50.124;8.678;2023-01-25T10:48:50;25.50;;;15.82;;
24715;SDS011;12822;50.124;8.678;2023-01-25T10:51:30;28.15;;;15.70;;
24715;SDS011;12822;50.124;8.678;2023-01-25T10:54:03;27.83;;;15.55;;
24715;SDS011;12822;50.124;8.678;2023-01-25T10:56:30;29.80;;;16.15;;
24715;SDS011;12822;50.124;8.678;2023-01-25T10:59:05;25.60;;;15.60;;
24715;SDS011;12822;50.124;8.678;2023-01-25T11:01:32;28.85;;;16.92;;
24715;SDS011;12822;50.124;8.678;2023-01-25T11:03:59;27.70;;;15.48;;
24715;SDS011;12822;50.124;8.678;2023-01-25T11:08:57;28.15;;;15.88;;
24715;SDS011;12822;50.124;8.678;2023-01-25T11:13:49;27.83;;;15.52;;
24715;SDS011;12822;50.124;8.678;2023-01-25T11:18:52;38.35;;;15.98;;
24715;SDS011;12822;50.124;8.678;2023-01-25T11:21:19;28.52;;;15.80;;
24715;SDS011;12822;50.124;8.678;2023-01-25T11:24:00;28.95;;;15.68;;
24715;SDS011;12822;50.124;8.678;2023-01-25T11:26:26;25.73;;;16.42;;
24715;SDS011;12822;50.124;8.678;2023-01-25T11:29:04;29.23;;;16.67;;
24715;SDS011;12822;50.124;8.678;2023-01-25T11:31:31;32.28;;;17.38;;
24715;SDS011;12822;50.124;8.678;2023-01-25T11:33:57;29.05;;;17.50;;
24715;SDS011;12822;50.124;8.678;2023-01-25T11:44:45;29.27;;;16.95;;
24715;SDS011;12822;50.124;8.678;2023-01-25T11:49:58;31.55;;;17.13;;
24715;SDS011;12822;50.124;8.678;2023-01-25T11:52:30;35.40;;;18.95;;
24715;SDS011;12822;50.124;8.678;2023-01-25T12:08:19;27.67;;;16.25;;
24715;SDS011;12822;50.124;8.678;2023-01-25T12:15:55;27.80;;;15.98;;
24715;SDS011;12822;50.124;8.678;2023-01-25T12:18:33;32.72;;;18.30;;
24715;SDS011;12822;50.124;8.678;2023-01-25T12:26:27;29.77;;;16.55;;
24715;SDS011;12822;50.124;8.678;2023-01-25T12:29:04;27.65;;;16.13;;
24715;SDS011;12822;50.124;8.678;2023-01-25T12:33:59;30.63;;;16.42;;
24715;SDS011;12822;50.124;8.678;2023-01-25T12:36:30;28.30;;;15.68;;
24715;SDS011;12822;50.124;8.678;2023-01-25T12:38:59;26.30;;;14.93;;
24715;SDS011;12822;50.124;8.678;2023-01-25T12:41:32;26.98;;;15.40;;
24715;SDS011;12822;50.124;8.678;2023-01-25T12:46:27;29.55;;;15.77;;
24715;SDS011;12822;50.124;8.678;2023-01-25T12:48:55;29.27;;;16.20;;
24715;SDS011;12822;50.124;8.678;2023-01-25T12:51:22;28.17;;;16.27;;
24715;SDS011;12822;50.124;8.678;2023-01-25T12:53:49;29.88;;;16.42;;
24715;SDS011;12822;50.124;8.678;2023-01-25T12:58:52;29.10;;;16.88;;
24715;SDS011;12822;50.124;8.678;2023-01-25T13:06:55;28.77;;;16.17;;
24715;SDS011;12822;50.124;8.678;2023-01-25T13:11:49;29.25;;;16.67;;
24715;SDS011;12822;50.124;8.678;2023-01-25T13:16:51;32.80;;;17.55;;
24715;SDS011;12822;50.124;8.678;2023-01-25T13:21:47;31.65;;;17.15;;
24715;SDS011;12822;50.124;8.678;2023-01-25T13:26:47;30.02;;;16.65;;
24715;SDS011;12822;50.124;8.678;2023-01-25T13:32:11;26.98;;;16.00;;
24715;SDS011;12822;50.124;8.678;2023-01-25T13:37:26;26.67;;;14.20;;
24715;SDS011;12822;50.124;8.678;2023-01-25T13:39:53;26.92;;;14.75;;
24715;SDS011;12822;50.124;8.678;2023-01-25T13:42:21;27.33;;;14.70;;
24715;SDS011;12822;50.124;8.678;2023-01-25T13:44:54;25.90;;;14.40;;
24715;SDS011;12822;50.124;8.678;2023-01-25T13:47:25;26.90;;;15.13;;
24715;SDS011;12822;50.124;8.678;2023-01-25T13:52:37;28.88;;;15.05;;
24715;SDS011;12822;50.124;8.678;2023-01-25T13:55:14;29.52;;;15.05;;
24715;SDS011;12822;50.124;8.678;2023-01-25T13:57:41;29.10;;;16.17;;
24715;SDS011;12822;50.124;8.678;2023-01-25T14:00:12;31.35;;;16.95;;
24715;SDS011;12822;50.124;8.678;2023-01-25T14:02:39;34.92;;;17.10;;
24715;SDS011;12822;50.124;8.678;2023-01-25T14:05:15;30.35;;;16.52;;
24715;SDS011;12822;50.124;8.678;2023-01-25T14:07:42;32.47;;;16.05;;
24715;SDS011;12822;50.124;8.678;2023-01-25T14:10:08;28.98;;;15.68;;
24715;SDS011;12822;50.124;8.678;2023-01-25T14:12:39;33.95;;;16.67;;
24715;SDS011;12822;50.124;8.678;2023-01-25T14:15:09;30.00;;;16.17;;
24715;SDS011;12822;50.124;8.678;2023-01-25T14:17:40;30.70;;;16.63;;
24715;SDS011;12822;50.124;8.678;2023-01-25T14:20:17;35.67;;;17.30;;
24715;SDS011;12822;50.124;8.678;2023-01-25T14:22:49;30.13;;;16.73;;
24715;SDS011;12822;50.124;8.678;2023-01-25T14:25:16;28.15;;;16.23;;
24715;SDS011;12822;50.124;8.678;2023-01-25T14:30:16;32.80;;;17.70;;
24715;SDS011;12822;50.124;8.678;2023-01-25T14:32:42;29.27;;;16.65;;
24715;SDS011;12822;50.124;8.678;2023-01-25T14:40:18;31.10;;;16.35;;
24715;SDS011;12822;50.124;8.678;2023-01-25T14:42:46;32.28;;;17.35;;
24715;SDS011;12822;50.124;8.678;2023-01-25T14:45:12;39.85;;;18.25;;
24715;SDS011;12822;50.124;8.678;2023-01-25T14:47:38;32.45;;;18.42;;
24715;SDS011;12822;50.124;8.678;2023-01-25T14:52:48;37.78;;;18.58;;
24715;SDS011;12822;50.124;8.678;2023-01-25T14:55:14;36.70;;;19.27;;
24715;SDS011;12822;50.124;8.678;2023-01-25T14:57:41;33.50;;;19.38;;
24715;SDS011;12822;50.124;8.678;2023-01-25T15:02:47;33.92;;;18.90;;
24715;SDS011;12822;50.124;8.678;2023-01-25T15:05:19;36.20;;;19.50;;
24715;SDS011;12822;50.124;8.678;2023-01-25T15:10:26;35.33;;;18.67;;
24715;SDS011;12822;50.124;8.678;2023-01-25T15:15:26;33.05;;;17.83;;
24715;SDS011;12822;50.124;8.678;2023-01-25T15:17:52;30.23;;;17.23;;
24715;SDS011;12822;50.124;8.678;2023-01-25T15:20:26;32.47;;;17.63;;
24715;SDS011;12822;50.124;8.678;2023-01-25T15:22:53;34.78;;;17.90;;
24715;SDS011;12822;50.124;8.678;2023-01-25T15:25:20;36.03;;;17.83;;
24715;SDS011;12822;50.124;8.678;2023-01-25T15:27:46;31.92;;;17.98;;
24715;SDS011;12822;50.124;8.678;2023-01-25T15:30:16;37.05;;;19.05;;
24715;SDS011;12822;50.124;8.678;2023-01-25T15:32:43;38.97;;;20.48;;
24715;SDS011;12822;50.124;8.678;2023-01-25T15:35:13;39.72;;;20.15;;
24715;SDS011;12822;50.124;8.678;2023-01-25T15:37:39;38.58;;;19.55;;
24715;SDS011;12822;50.124;8.678;2023-01-25T15:40:06;38.60;;;19.38;;
24715;SDS011;12822;50.124;8.678;2023-01-25T15:42:32;39.53;;;20.23;;
24715;SDS011;12822;50.124;8.678;2023-01-25T15:44:58;38.63;;;21.10;;
24715;SDS011;12822;50.124;8.678;2023-01-25T15:47:26;38.80;;;19.35;;
24715;SDS011;12822;50.124;8.678;2023-01-25T15:49:52;39.42;;;20.23;;
24715;SDS011;12822;50.124;8.678;2023-01-25T15:52:18;38.63;;;20.60;;
24715;SDS011;12822;50.124;8.678;2023-01-25T15:54:44;41.78;;;19.98;;
24715;SDS011;12822;50.124;8.678;2023-01-25T15:57:30;40.92;;;21.23;;
24715;SDS011;12822;50.124;8.678;2023-01-25T15:59:56;46.67;;;23.85;;
24715;SDS011;12822;50.124;8.678;2023-01-25T16:02:23;45.78;;;24.77;;
24715;SDS011;12822;50.124;8.678;2023-01-25T16:04:50;48.42;;;24.73;;
24715;SDS011;12822;50.124;8.678;2023-01-25T16:07:23;46.60;;;23.40;;
24715;SDS011;12822;50.124;8.678;2023-01-25T16:09:49;48.75;;;25.20;;
24715;SDS011;12822;50.124;8.678;2023-01-25T16:12:16;46.65;;;24.88;;
24715;SDS011;12822;50.124;8.678;2023-01-25T16:14:42;45.15;;;23.42;;
24715;SDS011;12822;50.124;8.678;2023-01-25T16:17:18;40.70;;;21.58;;
24715;SDS011;12822;50.124;8.678;2023-01-25T16:19:45;41.90;;;21.83;;
24715;SDS011;12822;50.124;8.678;2023-01-25T16:22:12;40.55;;;21.85;;
24715;SDS011;12822;50.124;8.678;2023-01-25T16:24:39;41.55;;;21.05;;
24715;SDS011;12822;50.124;8.678;2023-01-25T16:27:04;42.70;;;22.02;;
24715;SDS011;12822;50.124;8.678;2023-01-25T16:29:30;47.13;;;23.30;;
24715;SDS011;12822;50.124;8.678;2023-01-25T16:31:56;40.47;;;21.75;;
24715;SDS011;12822;50.124;8.678;2023-01-25T16:34:22;43.63;;;23.38;;
24715;SDS011;12822;50.124;8.678;2023-01-25T16:36:48;47.78;;;23.60;;
24715;SDS011;12822;50.124;8.678;2023-01-25T16:39:24;47.03;;;23.95;;